createdAt,value
2022-12-01T00:01:24.100Z,46.17
2022-12-01T00:03:52.219Z,46.95
2022-12-01T00:06:21.448Z,44.78
2022-12-01T00:09:09.395Z,47.58
2022-12-01T00:11:38.001Z,46.97
2022-12-01T00:14:06.215Z,47.47
2022-12-01T00:16:34.248Z,46.08
2022-12-01T00:19:01.967Z,45.00
2022-12-01T00:21:29.380Z,44.45
2022-12-01T00:23:58.110Z,45.72
2022-12-01T00:26:27.546Z,44.55
2022-12-01T00:28:57.511Z,44.80
2022-12-01T00:31:25.590Z,43.13
2022-12-01T00:33:53.046Z,44.95
2022-12-01T00:36:21.757Z,43.83
2022-12-01T00:38:52.519Z,44.05
2022-12-01T00:41:20.902Z,41.45
2022-12-01T00:43:48.578Z,40.40
2022-12-01T00:46:16.792Z,37.03
2022-12-01T00:48:44.254Z,38.58
2022-12-01T00:51:11.903Z,38.47
2022-12-01T00:53:39.135Z,39.63
2022-12-01T00:56:06.782Z,39.28
2022-12-01T00:58:34.432Z,40.30
2022-12-01T01:01:02.280Z,40.10
2022-12-01T01:03:30.612Z,42.80
2022-12-01T01:06:05.406Z,43.72
2022-12-01T01:08:32.909Z,42.20
2022-12-01T01:11:01.715Z,43.50
2022-12-01T01:13:29.802Z,44.47
2022-12-01T01:15:59.641Z,45.53
2022-12-01T01:18:27.195Z,45.15
2022-12-01T01:21:04.385Z,45.97
2022-12-01T01:23:32.187Z,44.28
2022-12-01T01:26:20.458Z,45.92
2022-12-01T01:28:48.963Z,44.65
2022-12-01T01:31:21.876Z,46.50
2022-12-01T01:33:50.526Z,45.67
2022-12-01T01:36:18.982Z,45.90
2022-12-01T01:38:47.562Z,47.80
2022-12-01T01:41:14.997Z,47.35
2022-12-01T01:43:59.731Z,49.15
2022-12-01T01:46:33.305Z,50.10
2022-12-01T01:49:04.319Z,50.70
2022-12-01T01:51:43.319Z,52.80
2022-12-01T01:54:23.903Z,52.85
2022-12-01T01:56:53.035Z,52.00
2022-12-01T01:59:24.903Z,52.53
2022-12-01T02:02:09.923Z,53.35
2022-12-01T02:04:51.285Z,51.83
2022-12-01T02:07:19.577Z,50.53
2022-12-01T02:09:47.237Z,52.67
2022-12-01T02:12:49.652Z,52.95
2022-12-01T02:15:43.539Z,56.83
2022-12-01T02:18:26.189Z,52.72
2022-12-01T02:21:19.628Z,53.80
2022-12-01T02:24:05.690Z,53.08
2022-12-01T02:26:51.987Z,50.03
2022-12-01T02:29:41.967Z,48.47
2022-12-01T02:32:24.128Z,47.17
2022-12-01T02:35:08.890Z,43.72
2022-12-01T02:38:09.743Z,44.97
2022-12-01T02:40:49.850Z,42.85
2022-12-01T02:43:37.623Z,44.88
2022-12-01T02:46:15.162Z,44.80
2022-12-01T02:48:46.944Z,45.78
2022-12-01T02:51:19.469Z,47.00
2022-12-01T02:53:47.676Z,43.30
2022-12-01T02:56:16.093Z,45.75
2022-12-01T02:58:43.787Z,43.33
2022-12-01T03:01:18.279Z,43.17
2022-12-01T03:04:03.119Z,43.85
2022-12-01T03:07:03.902Z,42.08
2022-12-01T03:09:33.870Z,40.17
2022-12-01T03:12:21.105Z,40.83
2022-12-01T03:15:08.073Z,42.88
2022-12-01T03:17:45.702Z,42.72
2022-12-01T03:20:20.968Z,42.97
2022-12-01T03:22:56.687Z,42.22
2022-12-01T03:25:26.423Z,43.55
2022-12-01T03:28:20.252Z,41.85
2022-12-01T03:30:46.714Z,40.72
2022-12-01T03:33:23.087Z,41.97
2022-12-01T03:36:03.856Z,40.42
2022-12-01T03:38:36.085Z,41.40
2022-12-01T03:41:12.273Z,39.72
2022-12-01T03:43:44.185Z,39.67
2022-12-01T03:48:47.122Z,38.75
2022-12-01T03:51:47.859Z,40.92
2022-12-01T03:54:22.665Z,41.13
2022-12-01T03:56:55.720Z,40.95
2022-12-01T03:59:25.354Z,42.13
2022-12-01T04:01:53.148Z,39.88
2022-12-01T04:04:20.851Z,40.80
2022-12-01T04:06:50.524Z,39.58
2022-12-01T04:09:17.870Z,40.13
2022-12-01T04:12:04.566Z,39.60
2022-12-01T04:14:32.052Z,37.00
2022-12-01T04:16:59.764Z,37.28
2022-12-01T04:19:27.107Z,37.47
2022-12-01T04:21:54.789Z,36.80
2022-12-01T04:24:22.039Z,38.10
2022-12-01T04:26:49.338Z,38.20
2022-12-01T04:29:16.710Z,38.67
2022-12-01T04:31:43.984Z,38.92
2022-12-01T04:34:11.435Z,37.67
2022-12-01T04:36:38.760Z,36.60
2022-12-01T04:39:06.029Z,36.97
2022-12-01T04:41:33.811Z,37.60
2022-12-01T04:44:01.178Z,37.58
2022-12-01T04:46:28.504Z,36.85
2022-12-01T04:48:55.786Z,36.33
2022-12-01T04:51:23.176Z,36.83
2022-12-01T04:53:51.179Z,36.25
2022-12-01T04:56:19.065Z,39.15
2022-12-01T04:58:46.761Z,36.17
2022-12-01T05:01:16.686Z,37.72
2022-12-01T05:03:50.827Z,36.70
2022-12-01T05:06:22.318Z,38.53
2022-12-01T05:08:50.903Z,39.60
2022-12-01T05:11:18.919Z,36.70
2022-12-01T05:13:47.884Z,38.38
2022-12-01T05:16:21.328Z,36.78
2022-12-01T05:19:16.096Z,38.40
2022-12-01T05:21:45.546Z,37.65
2022-12-01T05:24:15.582Z,38.38
2022-12-01T05:26:44.171Z,37.80
2022-12-01T05:29:12.718Z,38.47
2022-12-01T05:31:41.040Z,38.47
2022-12-01T05:34:09.002Z,39.75
2022-12-01T05:36:36.847Z,39.47
2022-12-01T05:39:05.063Z,40.78
2022-12-01T05:41:32.350Z,35.83
2022-12-01T05:43:59.727Z,40.97
2022-12-01T05:46:27.243Z,40.83
2022-12-01T05:48:54.628Z,42.85
2022-12-01T05:51:22.374Z,41.55
2022-12-01T05:53:49.760Z,42.08
2022-12-01T05:56:17.070Z,43.50
2022-12-01T05:58:44.334Z,42.40
2022-12-01T06:01:11.605Z,44.42
2022-12-01T06:03:38.826Z,45.35
2022-12-01T06:06:06.127Z,43.90
2022-12-01T06:08:33.966Z,45.28
2022-12-01T06:11:01.381Z,46.08
2022-12-01T06:13:29.044Z,44.13
2022-12-01T06:16:02.483Z,42.67
2022-12-01T06:18:35.781Z,44.53
2022-12-01T06:21:05.795Z,44.95
2022-12-01T06:23:33.879Z,46.72
2022-12-01T06:26:01.182Z,43.92
2022-12-01T06:28:28.394Z,46.42
2022-12-01T06:31:01.305Z,43.83
2022-12-01T06:33:31.823Z,43.38
2022-12-01T06:36:04.628Z,41.67
2022-12-01T06:38:34.720Z,43.38
2022-12-01T06:41:03.548Z,43.75
2022-12-01T06:43:30.962Z,42.42
2022-12-01T06:46:02.007Z,43.10
2022-12-01T06:48:30.631Z,39.10
2022-12-01T06:50:59.346Z,40.33
2022-12-01T06:53:28.395Z,41.22
2022-12-01T06:56:03.215Z,42.40
2022-12-01T06:58:30.984Z,44.10
2022-12-01T07:00:59.128Z,43.63
2022-12-01T07:03:27.567Z,42.42
2022-12-01T07:05:59.424Z,40.70
2022-12-01T07:10:59.534Z,43.30
2022-12-01T07:13:32.808Z,44.63
2022-12-01T07:16:05.213Z,43.47
2022-12-01T07:18:34.070Z,44.05
2022-12-01T07:21:03.000Z,45.00
2022-12-01T07:23:31.205Z,43.10
2022-12-01T07:26:10.633Z,42.63
2022-12-01T07:28:38.443Z,41.42
2022-12-01T07:31:13.400Z,44.30
2022-12-01T07:33:41.549Z,41.42
2022-12-01T07:36:10.902Z,40.33
2022-12-01T07:38:39.084Z,41.90
2022-12-01T07:41:14.032Z,41.75
2022-12-01T07:43:42.188Z,41.88
2022-12-01T07:46:20.366Z,42.42
2022-12-01T07:48:49.472Z,45.60
2022-12-01T07:51:17.365Z,41.63
2022-12-01T07:53:46.295Z,43.67
2022-12-01T07:56:14.228Z,42.92
2022-12-01T07:58:42.173Z,42.67
2022-12-01T08:01:14.901Z,45.72
2022-12-01T08:03:42.510Z,42.38
2022-12-01T08:06:11.510Z,44.72
2022-12-01T08:08:40.984Z,42.78
2022-12-01T08:11:14.678Z,43.30
2022-12-01T08:13:43.494Z,43.90
2022-12-01T08:16:13.998Z,44.65
2022-12-01T08:18:42.532Z,43.70
2022-12-01T08:21:12.959Z,43.83
2022-12-01T08:23:42.127Z,42.47
2022-12-01T08:26:13.944Z,42.67
2022-12-01T08:28:42.002Z,40.53
2022-12-01T08:31:13.808Z,39.28
2022-12-01T08:36:09.596Z,39.42
2022-12-01T08:38:37.233Z,39.75
2022-12-01T08:41:07.882Z,39.45
2022-12-01T08:46:28.997Z,39.72
2022-12-01T08:48:57.703Z,40.90
2022-12-01T08:51:26.230Z,39.30
2022-12-01T08:53:57.093Z,38.63
2022-12-01T08:56:38.544Z,39.60
2022-12-01T08:59:06.539Z,40.83
2022-12-01T09:01:34.833Z,40.25
2022-12-01T09:04:08.148Z,39.25
2022-12-01T09:06:41.683Z,38.22
2022-12-01T09:09:11.084Z,36.72
2022-12-01T09:11:38.867Z,38.03
2022-12-01T09:14:06.890Z,38.70
2022-12-01T09:16:34.328Z,36.53
2022-12-01T09:19:02.535Z,38.42
2022-12-01T09:21:31.728Z,37.72
2022-12-01T09:24:00.158Z,35.53
2022-12-01T09:26:27.864Z,38.30
2022-12-01T09:29:01.899Z,36.50
2022-12-01T09:31:30.298Z,39.38
2022-12-01T09:34:02.919Z,42.10
2022-12-01T09:36:32.443Z,39.42
2022-12-01T09:39:00.059Z,39.17
2022-12-01T09:41:35.409Z,40.97
2022-12-01T09:44:36.876Z,38.67
2022-12-01T09:47:11.009Z,40.28
2022-12-01T09:49:56.513Z,41.35
2022-12-01T09:52:26.976Z,40.83
2022-12-01T09:54:55.931Z,42.92
2022-12-01T09:57:32.654Z,44.50
2022-12-01T10:00:04.071Z,48.10
2022-12-01T10:02:44.059Z,47.80
2022-12-01T10:05:23.915Z,46.25
2022-12-01T10:08:04.471Z,44.85
2022-12-01T10:10:40.514Z,47.65
2022-12-01T10:13:20.606Z,49.53
2022-12-01T10:15:54.011Z,46.60
2022-12-01T10:18:53.716Z,48.15
2022-12-01T10:21:39.955Z,49.10
2022-12-01T10:24:24.691Z,49.13
2022-12-01T10:27:29.531Z,47.75
2022-12-01T10:30:15.544Z,45.88
2022-12-01T10:32:53.290Z,48.03
2022-12-01T10:35:24.683Z,46.45
2022-12-01T10:37:57.676Z,49.85
2022-12-01T10:40:27.021Z,49.13
2022-12-01T10:42:55.184Z,47.47
2022-12-01T10:45:24.011Z,47.20
2022-12-01T10:48:10.877Z,49.03
2022-12-01T10:50:38.567Z,49.05
2022-12-01T10:53:05.865Z,47.80
2022-12-01T10:55:43.425Z,49.83
2022-12-01T10:58:17.234Z,48.20
2022-12-01T11:01:00.524Z,52.42
2022-12-01T11:03:34.978Z,52.03
2022-12-01T11:06:06.418Z,58.30
2022-12-01T11:08:40.720Z,48.40
2022-12-01T11:11:25.131Z,46.88
2022-12-01T11:13:53.976Z,43.45
2022-12-01T11:16:37.934Z,45.60
2022-12-01T11:19:29.160Z,49.22
2022-12-01T11:21:59.581Z,50.63
2022-12-01T11:24:40.381Z,50.30
2022-12-01T11:27:18.812Z,46.78
2022-12-01T11:29:51.121Z,48.13
2022-12-01T11:32:26.307Z,49.90
2022-12-01T11:35:03.258Z,47.92
2022-12-01T11:37:36.852Z,48.67
2022-12-01T11:40:24.684Z,51.38
2022-12-01T11:42:54.855Z,49.63
2022-12-01T11:45:28.340Z,50.95
2022-12-01T11:48:05.115Z,49.15
2022-12-01T11:50:36.188Z,47.13
2022-12-01T11:53:04.642Z,48.13
2022-12-01T11:55:32.252Z,46.97
2022-12-01T11:58:03.975Z,45.38
2022-12-01T12:00:50.445Z,45.45
2022-12-01T12:03:38.044Z,46.75
2022-12-01T12:06:40.879Z,43.50
2022-12-01T12:09:27.042Z,44.17
2022-12-01T12:12:10.066Z,45.50
2022-12-01T12:14:37.285Z,45.53
2022-12-01T12:17:19.704Z,44.58
2022-12-01T12:20:21.878Z,44.45
2022-12-01T12:23:07.812Z,44.45
2022-12-01T12:25:54.695Z,44.83
2022-12-01T12:28:31.178Z,43.42
2022-12-01T12:31:30.978Z,44.47
2022-12-01T12:34:07.909Z,44.50
2022-12-01T12:37:06.266Z,44.20
2022-12-01T12:39:41.574Z,43.53
2022-12-01T12:42:36.928Z,43.25
2022-12-01T12:45:17.046Z,46.92
2022-12-01T12:48:02.759Z,43.75
2022-12-01T12:50:35.780Z,46.13
2022-12-01T12:53:14.417Z,44.30
2022-12-01T12:55:47.091Z,44.03
2022-12-01T12:58:26.723Z,43.63
2022-12-01T13:01:06.795Z,45.25
2022-12-01T13:03:42.514Z,45.38
2022-12-01T13:06:41.801Z,46.88
2022-12-01T13:09:27.199Z,44.60
2022-12-01T13:12:05.259Z,45.20
2022-12-01T13:15:01.179Z,43.78
2022-12-01T13:17:39.941Z,46.70
2022-12-01T13:20:14.334Z,45.38
2022-12-01T13:22:42.624Z,44.38
2022-12-01T13:25:15.285Z,45.42
2022-12-01T13:27:44.100Z,45.28
2022-12-01T13:30:24.359Z,44.70
2022-12-01T13:33:06.450Z,45.45
2022-12-01T13:38:27.053Z,48.13
2022-12-01T13:41:12.009Z,46.75
2022-12-01T13:43:51.606Z,51.50
2022-12-01T13:46:25.896Z,50.10
2022-12-01T13:48:56.660Z,47.33
2022-12-01T13:51:26.131Z,48.50
2022-12-01T13:54:05.732Z,48.90
2022-12-01T13:56:58.608Z,47.88
2022-12-01T14:00:00.912Z,49.35
2022-12-01T14:05:34.032Z,46.47
2022-12-01T14:08:01.774Z,47.13
2022-12-01T14:10:39.330Z,46.65
2022-12-01T14:13:07.162Z,47.10
2022-12-01T14:16:20.577Z,45.15
2022-12-01T14:18:56.748Z,46.08
2022-12-01T14:21:53.651Z,45.88
2022-12-01T14:24:23.338Z,42.67
2022-12-01T14:26:52.822Z,44.05
2022-12-01T14:29:33.488Z,42.47
2022-12-01T14:32:00.789Z,44.13
2022-12-01T14:34:35.810Z,42.90
2022-12-01T14:37:18.571Z,44.58
2022-12-01T14:40:06.979Z,46.75
2022-12-01T14:43:00.212Z,45.70
2022-12-01T14:45:40.451Z,45.15
2022-12-01T14:48:26.918Z,45.08
2022-12-01T14:51:08.078Z,45.60
2022-12-01T14:53:40.820Z,48.00
2022-12-01T14:56:14.080Z,48.22
2022-12-01T14:59:00.912Z,46.17
2022-12-01T15:01:35.103Z,46.88
2022-12-01T15:04:05.597Z,49.45
2022-12-01T15:06:35.499Z,50.42
2022-12-01T15:12:03.515Z,52.65
2022-12-01T15:14:34.915Z,54.50
2022-12-01T15:17:05.430Z,54.35
2022-12-01T15:19:40.959Z,54.17
2022-12-01T15:22:16.751Z,53.28
2022-12-01T15:24:45.847Z,61.17
2022-12-01T15:27:31.183Z,52.97
2022-12-01T15:30:04.236Z,52.40
2022-12-01T15:32:37.791Z,51.10
2022-12-01T15:35:11.880Z,53.20
2022-12-01T15:37:45.973Z,53.22
2022-12-01T15:43:18.098Z,53.85
2022-12-01T15:45:55.604Z,50.63
2022-12-01T15:48:32.748Z,53.17
2022-12-01T15:51:25.680Z,51.97
2022-12-01T15:53:56.479Z,52.67
2022-12-01T15:56:26.807Z,52.72
2022-12-01T15:59:02.401Z,53.15
2022-12-01T16:01:31.702Z,54.78
2022-12-01T16:04:06.014Z,54.40
2022-12-01T16:06:36.347Z,55.20
2022-12-01T16:09:28.149Z,56.03
2022-12-01T16:12:05.086Z,54.38
2022-12-01T16:14:33.889Z,56.28
2022-12-01T16:17:02.232Z,58.00
2022-12-01T16:19:31.815Z,55.38
2022-12-01T16:22:11.152Z,55.47
2022-12-01T16:24:47.709Z,56.58
2022-12-01T16:27:29.870Z,57.15
2022-12-01T16:32:40.553Z,57.00
2022-12-01T16:35:26.456Z,57.28
2022-12-01T16:37:54.853Z,58.08
2022-12-01T16:40:22.383Z,59.88
2022-12-01T16:42:50.565Z,57.15
2022-12-01T16:45:19.643Z,58.10
2022-12-01T16:47:48.743Z,60.53
2022-12-01T16:50:19.366Z,68.45
2022-12-01T16:52:46.950Z,68.03
2022-12-01T16:55:26.452Z,61.83
2022-12-01T16:57:55.266Z,60.70
2022-12-01T17:00:23.748Z,60.75
2022-12-01T17:02:52.735Z,62.53
2022-12-01T17:05:20.227Z,59.05
2022-12-01T17:07:48.895Z,59.92
2022-12-01T17:10:17.627Z,60.67
2022-12-01T17:12:44.916Z,58.55
2022-12-01T17:15:12.388Z,57.08
2022-12-01T17:17:39.871Z,58.35
2022-12-01T17:20:09.108Z,56.72
2022-12-01T17:22:36.756Z,58.58
2022-12-01T17:25:05.648Z,59.65
2022-12-01T17:27:33.071Z,65.35
2022-12-01T17:30:02.441Z,71.38
2022-12-01T17:32:29.729Z,70.95
2022-12-01T17:34:56.906Z,69.72
2022-12-01T17:37:24.207Z,66.13
2022-12-01T17:39:51.885Z,62.03
2022-12-01T17:42:19.101Z,58.17
2022-12-01T17:44:46.331Z,59.90
2022-12-01T17:47:13.694Z,57.17
2022-12-01T17:49:40.901Z,58.03
2022-12-01T17:52:08.961Z,62.08
2022-12-01T17:54:36.254Z,58.83
2022-12-01T17:57:03.681Z,57.83
2022-12-01T17:59:30.989Z,54.72
2022-12-01T18:02:00.197Z,52.17
2022-12-01T18:04:27.541Z,56.00
2022-12-01T18:06:54.920Z,53.80
2022-12-01T18:09:22.664Z,57.28
2022-12-01T18:11:50.784Z,56.78
2022-12-01T18:14:18.145Z,56.90
2022-12-01T18:16:46.068Z,56.42
2022-12-01T18:19:13.582Z,56.90
2022-12-01T18:21:41.348Z,56.80
2022-12-01T18:24:10.207Z,56.35
2022-12-01T18:26:39.904Z,58.70
2022-12-01T18:29:11.907Z,57.85
2022-12-01T18:31:41.479Z,58.92
2022-12-01T18:34:10.544Z,52.50
2022-12-01T18:36:40.527Z,57.67
2022-12-01T18:39:09.448Z,57.63
2022-12-01T18:41:37.435Z,55.53
2022-12-01T18:44:05.089Z,55.72
2022-12-01T18:46:33.314Z,53.80
2022-12-01T18:49:02.679Z,50.63
2022-12-01T18:51:33.911Z,53.20
2022-12-01T18:54:02.706Z,51.28
2022-12-01T18:56:30.492Z,50.25
2022-12-01T18:59:03.362Z,50.67
2022-12-01T19:01:40.018Z,53.22
2022-12-01T19:04:09.547Z,53.45
2022-12-01T19:06:38.461Z,52.90
2022-12-01T19:09:09.160Z,60.90
2022-12-01T19:11:38.474Z,59.20
2022-12-01T19:14:06.917Z,57.15
2022-12-01T19:16:34.384Z,59.50
2022-12-01T19:19:01.796Z,58.30
2022-12-01T19:21:29.175Z,60.10
2022-12-01T19:23:56.518Z,60.60
2022-12-01T19:26:25.516Z,60.45
2022-12-01T19:28:53.236Z,61.40
2022-12-01T19:31:23.687Z,58.50
2022-12-01T19:33:53.215Z,56.67
2022-12-01T19:36:23.239Z,56.88
2022-12-01T19:38:51.418Z,58.20
2022-12-01T19:41:25.148Z,55.80
2022-12-01T19:43:53.529Z,56.72
2022-12-01T19:46:24.047Z,53.97
2022-12-01T19:48:57.337Z,57.08
2022-12-01T19:51:26.977Z,54.95
2022-12-01T19:53:54.601Z,55.50
2022-12-01T19:56:22.581Z,58.05
2022-12-01T19:58:50.702Z,58.33
2022-12-01T20:01:19.522Z,57.45
2022-12-01T20:03:50.302Z,57.15
2022-12-01T20:06:21.250Z,56.33
2022-12-01T20:08:49.921Z,58.93
2022-12-01T20:11:17.654Z,60.38
2022-12-01T20:13:47.605Z,58.70
2022-12-01T20:16:19.924Z,57.03
2022-12-01T20:18:47.857Z,58.22
2022-12-01T20:21:25.995Z,63.00
2022-12-01T20:24:01.532Z,61.10
2022-12-01T20:26:31.657Z,62.63
2022-12-01T20:29:02.164Z,62.42
2022-12-01T20:31:31.868Z,98.25
2022-12-01T20:34:02.499Z,98.75
2022-12-01T20:36:30.535Z,89.13
2022-12-01T20:38:58.745Z,69.70
2022-12-01T20:41:26.034Z,64.53
2022-12-01T20:43:53.623Z,66.60
2022-12-01T20:46:21.496Z,66.10
2022-12-01T20:48:49.131Z,55.55
2022-12-01T20:51:16.856Z,54.58
2022-12-01T20:54:05.598Z,56.58
2022-12-01T20:56:32.384Z,56.90
2022-12-01T20:59:00.602Z,55.17
2022-12-01T21:01:28.268Z,56.38
2022-12-01T21:03:56.525Z,56.33
2022-12-01T21:06:24.291Z,54.90
2022-12-01T21:08:52.434Z,53.83
2022-12-01T21:11:44.614Z,56.33
2022-12-01T21:14:23.247Z,53.05
2022-12-01T21:16:52.463Z,53.75
2022-12-01T21:19:30.500Z,53.08
2022-12-01T21:21:58.803Z,50.60
2022-12-01T21:24:33.573Z,52.92
2022-12-01T21:27:12.559Z,54.58
2022-12-01T21:29:43.699Z,52.92
2022-12-01T21:32:30.220Z,55.03
2022-12-01T21:35:08.596Z,53.42
2022-12-01T21:37:36.362Z,55.03
2022-12-01T21:40:28.725Z,53.83
2022-12-01T21:43:01.528Z,51.80
2022-12-01T21:45:32.123Z,53.78
2022-12-01T21:48:18.299Z,51.05
2022-12-01T21:50:49.418Z,51.45
2022-12-01T21:53:20.134Z,49.97
2022-12-01T21:55:49.182Z,52.15
2022-12-01T21:58:31.403Z,49.95
2022-12-01T22:01:00.634Z,49.55
2022-12-01T22:03:32.482Z,49.65
2022-12-01T22:06:31.595Z,53.70
2022-12-01T22:09:14.320Z,52.92
2022-12-01T22:11:44.950Z,52.45
2022-12-01T22:14:20.102Z,51.70
2022-12-01T22:16:52.967Z,54.42
2022-12-01T22:19:26.365Z,54.95
2022-12-01T22:22:01.626Z,53.42
2022-12-01T22:24:42.510Z,49.65
2022-12-01T22:27:31.475Z,48.33
2022-12-01T22:30:18.987Z,48.55
2022-12-01T22:33:04.055Z,49.55
2022-12-01T22:35:34.568Z,49.22
2022-12-01T22:38:08.699Z,49.90
2022-12-01T22:40:58.974Z,49.63
2022-12-01T22:43:40.445Z,49.75
2022-12-01T22:46:16.384Z,49.97
2022-12-01T22:48:49.746Z,48.25
2022-12-01T22:51:21.972Z,46.95
2022-12-01T22:53:51.731Z,42.72
2022-12-01T22:56:40.439Z,44.83
2022-12-01T22:59:28.140Z,42.00
2022-12-01T23:01:57.102Z,44.78
2022-12-01T23:04:31.146Z,42.33
2022-12-01T23:07:20.379Z,42.45
2022-12-01T23:09:48.062Z,42.28
2022-12-01T23:12:26.024Z,41.92
2022-12-01T23:15:00.243Z,39.85
2022-12-01T23:17:30.615Z,38.40
2022-12-01T23:20:20.482Z,39.72
2022-12-01T23:22:48.167Z,39.50
2022-12-01T23:25:18.935Z,39.83
2022-12-01T23:27:48.554Z,39.22
2022-12-01T23:30:17.280Z,39.03
2022-12-01T23:32:48.911Z,40.20
2022-12-01T23:35:18.206Z,39.83
2022-12-01T23:37:47.718Z,40.67
2022-12-01T23:40:29.458Z,39.45
2022-12-01T23:43:29.427Z,41.20
2022-12-01T23:46:22.673Z,38.35
2022-12-01T23:48:59.165Z,40.47
2022-12-01T23:51:33.195Z,39.20
2022-12-01T23:54:06.491Z,38.58
2022-12-01T23:56:37.642Z,39.90
2022-12-01T23:59:10.426Z,39.22
